Time;durP1;ratioP1;P1;durP2;ratioP2;P2;SDS_P1;SDS_P2;PMS_P1;PMS_P2;Temp;Humidity;BMP_temperature;BMP_pressure;BME280_temperature;BME280_humidity;BME280_pressure;Samples;Min_cycle;Max_cycle;Signal;HPM_P1;HPM_P2
2021/06/18 00:00:08;;;;;;;8.95;8.05;;;20.60;85.40;;;;;;5121447;27;20201;-72
2021/06/18 00:02:37;;;;;;;8.43;7.63;;;20.50;85.60;;;;;;5116410;27;20214;-72
2021/06/18 00:05:05;;;;;;;9.25;8.55;;;20.50;86.80;;;;;;5122629;27;20275;-72
2021/06/18 00:07:32;;;;;;;9.38;8.48;;;20.60;87.90;;;;;;5122515;27;20251;-72
2021/06/18 00:09:58;;;;;;;9.35;8.65;;;20.50;88.40;;;;;;5123913;27;20550;-72
2021/06/18 00:12:25;;;;;;;9.23;8.52;;;20.40;89.10;;;;;;5122837;27;20286;-72
2021/06/18 00:14:52;;;;;;;9.50;8.55;;;20.40;90.10;;;;;;5125972;27;20662;-72
2021/06/18 00:17:19;;;;;;;9.63;8.73;;;20.30;90.10;;;;;;5123502;27;20207;-71
2021/06/18 00:19:47;;;;;;;10.07;9.27;;;20.20;90.30;;;;;;5117130;27;20282;-71
2021/06/18 00:22:14;;;;;;;10.02;9.23;;;20.30;90.80;;;;;;5118650;27;20562;-72
2021/06/18 00:24:41;;;;;;;10.45;9.55;;;20.30;91.10;;;;;;5120194;27;20227;-72
2021/06/18 00:27:08;;;;;;;10.52;9.60;;;20.20;91.40;;;;;;5126105;27;20322;-72
2021/06/18 00:29:35;;;;;;;10.05;9.15;;;20.20;91.70;;;;;;5120288;27;20206;-72
2021/06/18 00:32:02;;;;;;;10.50;9.20;;;20.20;91.80;;;;;;5123705;27;20203;-72
2021/06/18 00:34:29;;;;;;;10.43;9.50;;;20.20;91.90;;;;;;5125501;27;20373;-72
2021/06/18 00:36:57;;;;;;;9.93;9.20;;;20.10;92.10;;;;;;5119223;27;20210;-72
2021/06/18 00:39:24;;;;;;;10.25;9.40;;;20.10;92.20;;;;;;5126408;27;20298;-72
2021/06/18 00:41:52;;;;;;;10.80;9.80;;;20.00;92.40;;;;;;5125739;27;20195;-71
2021/06/18 00:44:19;;;;;;;11.30;10.30;;;20.00;92.80;;;;;;5121139;27;20568;-72
2021/06/18 00:46:46;;;;;;;10.05;9.25;;;20.00;92.90;;;;;;5119117;27;20720;-71
2021/06/18 00:49:14;;;;;;;9.70;9.00;;;20.00;93.30;;;;;;5118109;27;20318;-72
2021/06/18 00:51:41;;;;;;;11.48;10.57;;;20.00;93.20;;;;;;5122072;27;20210;-72
2021/06/18 00:54:10;;;;;;;11.13;10.23;;;19.80;93.40;;;;;;5118952;27;20296;-72
2021/06/18 00:56:38;;;;;;;10.98;10.18;;;19.70;94.00;;;;;;5124581;27;20199;-71
2021/06/18 00:59:05;;;;;;;11.18;10.27;;;19.70;94.50;;;;;;5125075;27;20201;-72
2021/06/18 01:01:32;;;;;;;11.60;10.60;;;19.60;95.40;;;;;;5125806;27;20199;-72
2021/06/18 01:03:59;;;;;;;10.40;9.60;;;19.50;95.50;;;;;;5120457;27;20298;-72
2021/06/18 01:06:31;;;;;;;12.80;11.80;;;19.40;96.00;;;;;;5126907;27;20199;-72
2021/06/18 01:09:04;;;;;;;11.38;10.23;;;19.40;96.40;;;;;;5122225;27;20264;-72
2021/06/18 01:11:38;;;;;;;12.70;11.50;;;19.30;96.70;;;;;;5124444;27;20206;-72
2021/06/18 01:14:10;;;;;;;11.82;10.80;;;19.30;97.30;;;;;;5116674;27;20195;-72
2021/06/18 01:16:41;;;;;;;11.73;10.77;;;19.20;97.80;;;;;;5126264;27;20305;-72
2021/06/18 01:19:18;;;;;;;12.85;11.65;;;19.10;98.20;;;;;;5121048;27;20306;-72
2021/06/18 01:21:52;;;;;;;12.27;11.13;;;19.00;98.60;;;;;;5120243;27;20203;-72
2021/06/18 01:24:34;;;;;;;12.55;11.32;;;19.00;99.10;;;;;;5124909;27;20207;-72
2021/06/18 01:27:14;;;;;;;12.50;11.50;;;19.00;99.70;;;;;;5123239;27;20222;-72
2021/06/18 01:29:45;;;;;;;11.65;10.65;;;19.10;99.70;;;;;;5118063;27;20217;-72
2021/06/18 01:32:18;;;;;;;12.32;11.43;;;19.20;99.50;;;;;;5123827;27;20207;-72
2021/06/18 01:34:46;;;;;;;12.75;11.65;;;19.10;99.90;;;;;;5123821;27;20658;-72
2021/06/18 01:37:17;;;;;;;12.95;11.95;;;19.00;99.90;;;;;;5122909;27;20202;-72
2021/06/18 01:39:46;;;;;;;13.75;12.55;;;18.90;99.90;;;;;;5121276;27;20207;-72
2021/06/18 01:42:14;;;;;;;14.32;12.35;;;18.90;99.90;;;;;;5124677;27;20293;-72
2021/06/18 01:44:45;;;;;;;14.23;13.13;;;18.80;99.90;;;;;;5123519;27;20238;-72
2021/06/18 01:47:15;;;;;;;13.55;12.25;;;18.70;99.90;;;;;;5118494;27;20231;-71
2021/06/18 01:49:43;;;;;;;12.98;11.70;;;18.60;99.90;;;;;;5114561;27;20210;-72
2021/06/18 01:52:12;;;;;;;12.98;11.90;;;18.80;99.90;;;;;;5120455;28;20200;-72
2021/06/18 01:54:41;;;;;;;12.80;11.80;;;19.00;99.90;;;;;;5124426;28;20593;-72
2021/06/18 01:57:09;;;;;;;13.43;12.32;;;19.20;99.90;;;;;;5123974;27;20205;-72
2021/06/18 01:59:38;;;;;;;12.57;11.65;;;19.10;99.90;;;;;;5128330;27;20616;-71
2021/06/18 02:02:08;;;;;;;11.38;10.38;;;18.90;99.90;;;;;;5119315;27;20294;-72
2021/06/18 02:04:37;;;;;;;13.55;12.38;;;18.70;99.90;;;;;;5127354;27;20237;-72
2021/06/18 02:07:05;;;;;;;13.73;12.60;;;18.40;99.90;;;;;;5121577;27;20314;-72
2021/06/18 02:09:34;;;;;;;13.65;12.55;;;18.40;99.90;;;;;;5119045;27;20206;-72
2021/06/18 02:12:01;;;;;;;14.60;13.30;;;18.30;99.90;;;;;;5127387;27;20199;-72
2021/06/18 02:14:30;;;;;;;13.07;11.77;;;18.20;99.90;;;;;;5124439;27;20223;-72
2021/06/18 02:17:00;;;;;;;13.80;12.60;;;18.10;99.90;;;;;;5124548;27;20210;-72
2021/06/18 02:19:30;;;;;;;14.77;13.60;;;18.00;99.90;;;;;;5121646;27;20298;-72
2021/06/18 02:21:58;;;;;;;13.85;12.65;;;18.00;99.90;;;;;;5119828;27;20291;-72
2021/06/18 02:24:29;;;;;;;15.05;13.75;;;18.10;99.90;;;;;;5122624;27;20214;-72
2021/06/18 02:26:57;;;;;;;15.57;14.00;;;18.10;99.90;;;;;;5126372;27;20203;-72
2021/06/18 02:29:24;;;;;;;16.30;15.00;;;18.10;99.90;;;;;;5122274;27;20233;-72
2021/06/18 02:31:52;;;;;;;15.90;14.50;;;18.00;99.90;;;;;;5126076;27;20210;-72
2021/06/18 02:34:19;;;;;;;15.48;14.20;;;18.00;99.90;;;;;;5121812;27;20299;-72
2021/06/18 02:36:47;;;;;;;14.48;13.32;;;18.00;99.90;;;;;;5124447;27;20207;-72
2021/06/18 02:39:14;;;;;;;15.23;13.90;;;18.10;99.90;;;;;;5122227;27;20255;-72
2021/06/18 02:41:42;;;;;;;14.80;13.43;;;18.10;99.90;;;;;;5128003;27;20199;-72
2021/06/18 02:44:10;;;;;;;13.55;12.45;;;18.30;99.90;;;;;;5127702;27;21013;-72
2021/06/18 02:46:41;;;;;;;14.57;13.27;;;18.30;99.90;;;;;;5127888;27;20286;-72
2021/06/18 02:49:13;;;;;;;14.00;12.85;;;18.40;99.90;;;;;;5123447;27;20707;-72
2021/06/18 02:51:42;;;;;;;14.13;13.02;;;18.40;99.90;;;;;;5124553;27;20202;-72
2021/06/18 02:54:25;;;;;;;16.05;14.65;;;18.40;99.90;;;;;;5127308;27;20619;-72
2021/06/18 02:56:58;;;;;;;14.75;13.55;;;18.40;99.90;;;;;;5128094;27;20202;-72
2021/06/18 02:59:31;;;;;;;15.02;13.65;;;18.30;99.90;;;;;;5124441;27;20689;-72
2021/06/18 03:02:00;;;;;;;16.05;14.65;;;18.30;99.90;;;;;;5124184;27;20205;-72
2021/06/18 03:04:31;;;;;;;14.90;13.60;;;18.30;99.90;;;;;;5127055;27;20285;-72
2021/06/18 03:07:01;;;;;;;15.13;13.82;;;18.30;99.90;;;;;;5124534;27;20195;-72
2021/06/18 03:09:33;;;;;;;15.07;13.77;;;18.30;99.90;;;;;;5127303;27;20205;-72
2021/06/18 03:12:01;;;;;;;14.20;12.90;;;18.20;99.90;;;;;;5125923;27;20206;-72
2021/06/18 03:14:30;;;;;;;14.98;13.73;;;18.30;99.90;;;;;;5127455;27;20286;-72
2021/06/18 03:17:00;;;;;;;14.68;13.55;;;18.30;99.90;;;;;;5116534;27;20599;-71
2021/06/18 03:19:31;;;;;;;15.15;13.85;;;18.30;99.90;;;;;;5123379;27;20227;-72
2021/06/18 03:22:01;;;;;;;15.40;13.57;;;18.30;99.90;;;;;;5122898;27;20284;-72
2021/06/18 03:24:31;;;;;;;13.70;12.63;;;18.30;99.90;;;;;;5124472;27;20203;-72
2021/06/18 03:26:59;;;;;;;14.10;12.80;;;18.20;99.90;;;;;;5118384;27;20214;-71
2021/06/18 03:29:28;;;;;;;14.85;13.52;;;18.30;99.90;;;;;;5120307;27;20217;-71
2021/06/18 03:31:56;;;;;;;12.52;11.32;;;18.30;99.90;;;;;;5122789;27;20278;-72
2021/06/18 03:34:23;;;;;;;15.02;13.73;;;18.00;99.90;;;;;;5121028;27;20203;-72
2021/06/18 03:36:52;;;;;;;15.85;14.35;;;18.00;99.90;;;;;;5121958;27;20279;-72
2021/06/18 03:39:20;;;;;;;15.48;14.27;;;18.00;99.90;;;;;;5126547;27;21563;-72
2021/06/18 03:41:48;;;;;;;15.18;13.77;;;18.10;99.90;;;;;;5122203;27;20207;-71
2021/06/18 03:44:16;;;;;;;14.82;13.43;;;18.50;99.90;;;;;;5123969;27;20209;-71
2021/06/18 03:46:46;;;;;;;13.75;12.55;;;18.60;99.90;;;;;;5124760;27;20672;-72
2021/06/18 03:49:13;;;;;;;15.13;13.82;;;18.60;99.90;;;;;;5115848;27;20206;-72
2021/06/18 03:51:41;;;;;;;15.32;13.93;;;18.50;99.90;;;;;;5123936;27;20222;-72
2021/06/18 03:54:08;;;;;;;15.98;14.30;;;18.40;99.90;;;;;;5122100;27;20294;-72
2021/06/18 03:56:37;;;;;;;14.98;13.77;;;18.50;99.90;;;;;;5123802;27;20610;-72
2021/06/18 03:59:06;;;;;;;15.23;14.13;;;18.60;99.90;;;;;;5126396;27;20237;-72
2021/06/18 04:01:35;;;;;;;14.00;12.90;;;19.20;99.90;;;;;;5119909;27;20198;-72
2021/06/18 04:04:03;;;;;;;13.00;12.00;;;19.60;99.90;;;;;;5122720;27;20199;-72
2021/06/18 04:06:31;;;;;;;13.02;12.05;;;20.10;99.90;;;;;;5123631;27;21006;-71
2021/06/18 04:08:59;;;;;;;13.45;12.35;;;20.50;99.90;;;;;;5126870;27;20805;-72
2021/06/18 04:11:27;;;;;;;14.50;13.30;;;21.20;99.90;;;;;;5122677;27;20215;-72
2021/06/18 04:13:54;;;;;;;13.33;12.20;;;21.50;99.90;;;;;;5126422;27;20617;-72
2021/06/18 04:16:22;;;;;;;12.73;11.77;;;21.70;99.90;;;;;;5125457;27;20736;-71
2021/06/18 04:18:51;;;;;;;12.33;11.33;;;22.10;99.10;;;;;;5124773;27;20701;-71
2021/06/18 04:21:21;;;;;;;13.07;11.80;;;23.40;96.70;;;;;;5125125;27;20624;-72
2021/06/18 04:23:48;;;;;;;12.60;11.60;;;23.70;94.90;;;;;;5126395;27;20657;-72
2021/06/18 04:26:18;;;;;;;12.63;11.63;;;23.70;94.70;;;;;;5116725;27;21094;-72
2021/06/18 04:28:45;;;;;;;11.80;10.87;;;24.00;94.10;;;;;;5126502;27;20624;-73
2021/06/18 04:31:13;;;;;;;11.77;10.97;;;24.10;93.90;;;;;;5125735;27;20627;-72
2021/06/18 04:33:41;;;;;;;12.03;11.03;;;25.10;93.30;;;;;;5124566;27;21256;-73
2021/06/18 04:36:08;;;;;;;12.03;11.07;;;25.90;91.70;;;;;;5122727;27;20641;-73
2021/06/18 04:38:38;;;;;;;11.90;10.77;;;26.80;90.10;;;;;;5123013;27;21278;-73
2021/06/18 04:41:05;;;;;;;11.87;11.00;;;27.10;87.40;;;;;;5126179;27;20636;-73
2021/06/18 04:43:31;;;;;;;12.60;11.30;;;26.80;86.60;;;;;;5123304;27;20719;-73
2021/06/18 04:45:59;;;;;;;12.33;11.30;;;26.50;85.80;;;;;;5122923;27;20732;-72
2021/06/18 04:48:27;;;;;;;12.60;11.50;;;27.60;84.60;;;;;;5118113;27;20596;-73
2021/06/18 04:50:56;;;;;;;11.80;10.83;;;29.20;78.90;;;;;;5122780;27;21227;-73
2021/06/18 04:53:23;;;;;;;12.93;12.03;;;29.50;76.30;;;;;;5122725;27;21020;-72
2021/06/18 04:55:50;;;;;;;11.93;11.00;;;30.00;76.30;;;;;;5124663;27;20985;-72
2021/06/18 04:58:16;;;;;;;12.30;11.30;;;30.60;74.30;;;;;;5122381;27;20762;-72
2021/06/18 05:00:43;;;;;;;10.97;10.20;;;30.90;71.30;;;;;;5123948;27;20727;-73
2021/06/18 05:03:10;;;;;;;11.97;11.00;;;31.10;69.60;;;;;;5116505;27;20633;-72
2021/06/18 05:05:37;;;;;;;11.70;10.90;;;30.00;70.30;;;;;;5124917;27;21168;-72
2021/06/18 05:08:05;;;;;;;10.93;10.03;;;30.10;71.50;;;;;;5124949;27;21143;-72
2021/06/18 05:10:32;;;;;;;12.57;11.40;;;31.30;67.80;;;;;;5122763;27;20621;-73
2021/06/18 05:12:59;;;;;;;10.93;10.10;;;31.40;66.20;;;;;;5125707;27;20638;-72
2021/06/18 05:15:26;;;;;;;10.50;9.80;;;32.10;66.30;;;;;;5124462;27;20735;-71
2021/06/18 05:17:53;;;;;;;10.73;10.03;;;32.80;62.80;;;;;;5124213;27;20727;-71
2021/06/18 05:20:20;;;;;;;10.83;10.03;;;33.30;61.70;;;;;;5122489;27;20631;-71
2021/06/18 05:22:47;;;;;;;11.10;10.20;;;33.60;61.30;;;;;;5122944;27;21299;-72
2021/06/18 05:25:16;;;;;;;11.23;10.43;;;33.50;61.30;;;;;;5123337;27;21004;-72
2021/06/18 05:27:43;;;;;;;10.90;10.00;;;32.10;61.80;;;;;;5125187;27;20990;-72
2021/06/18 05:30:11;;;;;;;10.70;10.00;;;32.90;61.70;;;;;;5125118;27;20631;-72
2021/06/18 05:32:38;;;;;;;10.83;10.03;;;34.10;59.60;;;;;;5116068;27;20636;-72
2021/06/18 05:35:07;;;;;;;10.60;9.80;;;34.70;57.70;;;;;;5113918;27;20642;-71
2021/06/18 05:37:34;;;;;;;10.67;9.87;;;34.70;57.40;;;;;;5125457;27;20716;-72
2021/06/18 05:40:01;;;;;;;11.27;10.40;;;36.00;55.80;;;;;;5125301;27;20636;-71
2021/06/18 05:42:29;;;;;;;11.07;10.23;;;36.40;54.40;;;;;;5119004;27;20867;-71
2021/06/18 05:44:56;;;;;;;10.27;9.40;;;36.90;53.30;;;;;;5122218;27;20653;-71
2021/06/18 05:47:23;;;;;;;10.80;10.00;;;35.70;55.30;;;;;;5120906;27;20628;-71
2021/06/18 05:49:50;;;;;;;10.50;9.60;;;34.20;56.40;;;;;;5118465;27;20700;-71
2021/06/18 05:52:17;;;;;;;10.77;9.97;;;34.10;57.30;;;;;;5118071;28;20636;-71
2021/06/18 05:54:44;;;;;;;11.50;10.70;;;34.70;56.90;;;;;;5122180;28;20639;-71
2021/06/18 05:57:14;;;;;;;10.00;9.30;;;34.70;56.50;;;;;;5118971;28;20723;-71
2021/06/18 05:59:43;;;;;;;10.13;9.20;;;35.40;55.70;;;;;;5124728;27;20727;-72
2021/06/18 06:02:09;;;;;;;10.80;9.90;;;35.00;55.70;;;;;;5120618;27;20660;-71
2021/06/18 06:04:36;;;;;;;10.63;9.90;;;35.50;55.30;;;;;;5124760;28;20715;-71
2021/06/18 06:07:03;;;;;;;11.13;10.20;;;34.70;55.60;;;;;;5124831;28;21236;-71
2021/06/18 06:09:30;;;;;;;11.70;10.53;;;32.90;58.70;;;;;;5125136;28;20686;-71
2021/06/18 06:11:57;;;;;;;13.90;10.57;;;33.00;59.00;;;;;;5122862;28;21132;-72
2021/06/18 06:14:24;;;;;;;12.80;11.77;;;33.00;59.20;;;;;;5116056;28;20973;-72
2021/06/18 06:16:52;;;;;;;11.50;10.40;;;32.50;59.10;;;;;;5113690;28;20632;-72
2021/06/18 06:19:19;;;;;;;11.63;10.73;;;32.70;59.80;;;;;;5114523;28;20972;-71
2021/06/18 06:21:46;;;;;;;10.13;9.33;;;34.00;57.90;;;;;;5123707;28;20636;-72
2021/06/18 06:24:14;;;;;;;10.97;10.17;;;33.50;57.90;;;;;;5124607;28;20627;-71
2021/06/18 06:26:41;;;;;;;10.70;9.90;;;34.40;56.80;;;;;;5114896;28;20630;-72
2021/06/18 06:29:08;;;;;;;9.83;9.27;;;34.90;56.30;;;;;;5123482;28;20676;-72
2021/06/18 06:31:35;;;;;;;9.90;9.30;;;35.50;55.90;;;;;;5108185;28;20717;-71
2021/06/18 06:34:04;;;;;;;10.90;9.80;;;36.50;53.80;;;;;;5124218;28;20636;-71
2021/06/18 06:36:31;;;;;;;10.37;9.57;;;35.40;54.40;;;;;;5122888;28;20629;-72
2021/06/18 06:38:58;;;;;;;14.00;9.20;;;35.10;55.60;;;;;;5116442;28;21001;-72
2021/06/18 06:41:25;;;;;;;10.23;9.40;;;35.00;55.50;;;;;;5123204;27;20646;-72
2021/06/18 06:43:51;;;;;;;10.67;9.77;;;34.70;56.20;;;;;;5128638;27;21274;-71
2021/06/18 06:46:21;;;;;;;10.17;9.47;;;34.80;55.70;;;;;;5135437;27;20620;-71
2021/06/18 06:48:48;;;;;;;10.33;9.63;;;35.70;55.30;;;;;;5129129;27;20664;-71
2021/06/18 06:51:16;;;;;;;11.03;9.97;;;35.30;55.40;;;;;;5128317;27;20642;-71
2021/06/18 06:53:43;;;;;;;9.70;9.00;;;35.40;55.50;;;;;;5128193;27;20646;-71
2021/06/18 06:56:11;;;;;;;10.30;9.50;;;37.00;52.50;;;;;;5128213;27;20620;-71
2021/06/18 06:58:37;;;;;;;8.83;8.23;;;36.80;52.70;;;;;;5126488;27;21181;-71
2021/06/18 07:01:04;;;;;;;9.80;9.00;;;36.00;54.20;;;;;;5122004;27;20625;-71
2021/06/18 07:03:31;;;;;;;9.73;8.83;;;37.30;52.90;;;;;;5125835;27;20626;-71
2021/06/18 07:05:58;;;;;;;10.37;9.37;;;37.50;51.20;;;;;;5128181;27;20617;-71
2021/06/18 07:08:26;;;;;;;10.43;9.73;;;37.30;52.40;;;;;;5126826;27;20635;-71
2021/06/18 07:10:54;;;;;;;9.57;8.97;;;37.40;51.70;;;;;;5124542;27;20680;-71
2021/06/18 07:13:21;;;;;;;10.17;9.37;;;36.40;52.70;;;;;;5128372;27;20632;-70
2021/06/18 07:15:50;;;;;;;10.23;9.47;;;35.70;54.00;;;;;;5119629;27;20632;-71
2021/06/18 07:18:17;;;;;;;9.77;9.07;;;35.80;53.50;;;;;;5128266;27;20720;-70
2021/06/18 07:20:47;;;;;;;14.60;10.10;;;35.90;53.90;;;;;;5122423;27;20632;-71
2021/06/18 07:23:15;;;;;;;10.90;10.00;;;36.00;54.50;;;;;;5124872;27;20622;-71
2021/06/18 07:25:44;;;;;;;10.00;9.20;;;36.30;53.90;;;;;;5127327;27;20734;-71
2021/06/18 07:28:12;;;;;;;9.73;8.83;;;36.70;53.00;;;;;;5124416;27;20640;-71
2021/06/18 07:30:40;;;;;;;9.73;9.17;;;35.30;52.90;;;;;;5123717;27;20767;-72
2021/06/18 07:33:07;;;;;;;8.87;8.20;;;34.90;54.40;;;;;;5125178;27;20701;-71
2021/06/18 07:35:35;;;;;;;9.53;8.90;;;35.40;54.30;;;;;;5126681;27;20672;-72
2021/06/18 07:38:02;;;;;;;9.00;8.27;;;36.60;51.50;;;;;;5128175;27;20633;-71
2021/06/18 07:40:29;;;;;;;9.80;9.00;;;36.80;51.70;;;;;;5127348;27;20694;-71
2021/06/18 07:42:57;;;;;;;9.43;8.73;;;37.10;51.80;;;;;;5128060;27;20624;-71
2021/06/18 07:45:25;;;;;;;9.17;8.57;;;36.20;52.00;;;;;;5124982;27;20632;-71
2021/06/18 07:47:51;;;;;;;9.00;8.33;;;35.90;53.40;;;;;;5121845;27;20620;-71
2021/06/18 07:50:20;;;;;;;8.87;8.17;;;36.30;53.30;;;;;;5116406;27;20676;-71
2021/06/18 07:52:47;;;;;;;9.67;8.87;;;36.60;51.20;;;;;;5126545;27;20645;-71
2021/06/18 07:55:18;;;;;;;9.53;8.80;;;36.60;51.00;;;;;;5126321;27;20629;-71
2021/06/18 07:57:45;;;;;;;9.73;8.90;;;36.00;52.20;;;;;;5127708;27;20651;-71
2021/06/18 08:00:15;;;;;;;8.60;8.10;;;35.40;53.50;;;;;;5126052;27;20632;-71
2021/06/18 08:02:42;;;;;;;8.27;7.70;;;34.40;54.10;;;;;;5116673;27;20728;-72
2021/06/18 08:05:11;;;;;;;8.43;7.77;;;36.40;50.80;;;;;;5124205;27;21153;-72
2021/06/18 08:07:39;;;;;;;8.10;7.50;;;37.60;48.80;;;;;;5125613;27;20724;-71
2021/06/18 08:10:07;;;;;;;9.17;8.57;;;38.00;47.90;;;;;;5123547;27;21108;-72
2021/06/18 08:12:34;;;;;;;8.27;7.57;;;37.70;49.10;;;;;;5127243;27;20724;-71
2021/06/18 08:15:00;;;;;;;8.93;8.23;;;37.20;49.10;;;;;;5126417;27;20627;-71
2021/06/18 08:17:29;;;;;;;8.53;7.87;;;37.60;48.80;;;;;;5118957;27;20632;-71
2021/06/18 08:19:55;;;;;;;8.37;7.77;;;37.40;49.50;;;;;;5119883;27;20725;-72
2021/06/18 08:22:23;;;;;;;9.20;8.60;;;37.70;48.50;;;;;;5122433;27;20657;-71
2021/06/18 08:24:50;;;;;;;9.83;9.10;;;37.20;49.40;;;;;;5123512;27;20967;-72
2021/06/18 08:27:18;;;;;;;8.90;8.20;;;36.40;52.50;;;;;;5103288;27;21237;-71
2021/06/18 08:29:45;;;;;;;8.20;7.70;;;35.60;52.00;;;;;;5117317;27;20692;-72
2021/06/18 08:32:12;;;;;;;8.97;8.37;;;36.50;51.20;;;;;;5126198;27;21031;-72
2021/06/18 08:34:40;;;;;;;8.50;7.90;;;38.10;47.70;;;;;;5124516;27;20628;-72
2021/06/18 08:37:08;;;;;;;8.50;7.70;;;37.30;48.90;;;;;;5125863;27;20631;-71
2021/06/18 08:39:34;;;;;;;9.13;8.33;;;37.50;49.30;;;;;;5123712;27;20669;-71
2021/06/18 08:42:01;;;;;;;9.10;8.50;;;37.30;49.60;;;;;;5114945;27;20629;-69
2021/06/18 08:44:28;;;;;;;10.13;9.43;;;36.50;49.30;;;;;;5119888;27;20639;-71
2021/06/18 08:46:55;;;;;;;10.40;9.70;;;35.70;50.80;;;;;;5123107;27;20625;-71
2021/06/18 08:49:23;;;;;;;10.27;9.57;;;36.20;51.00;;;;;;5126226;27;20737;-72
2021/06/18 08:51:51;;;;;;;9.80;8.90;;;35.10;52.00;;;;;;5116151;27;20634;-71
2021/06/18 08:54:19;;;;;;;10.30;9.50;;;36.00;50.80;;;;;;5122939;27;20621;-71
2021/06/18 08:56:46;;;;;;;10.03;9.40;;;35.00;52.70;;;;;;5124330;27;20636;-71
2021/06/18 08:59:13;;;;;;;9.97;9.17;;;34.70;55.70;;;;;;5120426;27;20720;-72
2021/06/18 09:01:40;;;;;;;9.63;8.93;;;34.70;54.50;;;;;;5115699;27;20628;-71
2021/06/18 09:04:08;;;;;;;9.73;9.00;;;36.30;51.20;;;;;;5125241;27;20763;-71
2021/06/18 09:06:39;;;;;;;10.23;9.53;;;36.30;53.40;;;;;;5123103;27;20716;-72
2021/06/18 09:09:15;;;;;;;10.73;9.67;;;36.10;50.70;;;;;;5119568;27;20794;-71
2021/06/18 09:11:45;;;;;;;10.50;9.60;;;37.00;50.00;;;;;;5120311;27;20996;-72
2021/06/18 09:14:30;;;;;;;10.10;9.13;;;36.50;51.60;;;;;;5123147;27;20636;-70
2021/06/18 09:17:06;;;;;;;10.87;10.07;;;36.30;52.40;;;;;;5110651;27;21182;-72
2021/06/18 09:19:34;;;;;;;9.20;8.60;;;36.70;50.20;;;;;;5125075;27;20616;-71
2021/06/18 09:22:03;;;;;;;10.13;9.50;;;37.00;50.40;;;;;;5123403;27;21177;-72
2021/06/18 09:24:33;;;;;;;10.13;9.43;;;37.20;50.30;;;;;;5124887;27;20744;-71
2021/06/18 09:27:01;;;;;;;10.30;9.60;;;37.80;49.20;;;;;;5123652;27;20664;-72
2021/06/18 09:29:29;;;;;;;9.87;9.17;;;36.60;50.60;;;;;;5126033;27;21002;-72
2021/06/18 09:31:59;;;;;;;10.37;9.67;;;35.80;52.50;;;;;;5123792;27;21001;-72
2021/06/18 09:34:44;;;;;;;10.27;9.60;;;35.90;52.90;;;;;;5125265;27;20724;-72
2021/06/18 09:37:39;;;;;;;9.80;9.20;;;35.70;53.40;;;;;;5130616;27;20627;-72
2021/06/18 09:40:15;;;;;;;10.97;10.03;;;35.40;52.80;;;;;;5121926;27;21066;-72
2021/06/18 09:42:51;;;;;;;10.73;9.93;;;35.70;53.10;;;;;;5123592;27;21508;-72
2021/06/18 09:45:20;;;;;;;11.20;10.40;;;35.40;54.80;;;;;;5117510;27;20632;-72
2021/06/18 09:47:47;;;;;;;10.53;9.73;;;35.50;55.90;;;;;;5115885;28;20636;-71
2021/06/18 09:50:29;;;;;;;11.07;10.27;;;35.80;51.60;;;;;;5125850;27;20771;-71
2021/06/18 09:53:21;;;;;;;10.20;9.47;;;36.40;51.80;;;;;;5121520;28;20660;-72
2021/06/18 09:56:02;;;;;;;10.90;9.90;;;36.20;52.70;;;;;;5121158;28;20625;-71
2021/06/18 09:58:33;;;;;;;11.13;10.33;;;35.70;52.50;;;;;;5123733;28;21269;-71
2021/06/18 10:01:18;;;;;;;10.20;9.37;;;36.20;50.90;;;;;;5118176;28;20659;-71
2021/06/18 10:04:01;;;;;;;10.33;9.63;;;35.80;52.10;;;;;;5116673;28;20644;-71
2021/06/18 10:06:30;;;;;;;10.60;9.80;;;36.20;52.00;;;;;;5122601;28;20944;-72
2021/06/18 10:08:58;;;;;;;11.43;10.53;;;35.40;52.50;;;;;;5123057;27;20627;-71
2021/06/18 10:11:26;;;;;;;11.70;10.80;;;34.80;54.50;;;;;;5117413;28;21037;-71
2021/06/18 10:13:53;;;;;;;10.30;9.40;;;34.70;55.00;;;;;;5116861;28;20621;-71
2021/06/18 10:16:22;;;;;;;11.30;10.40;;;34.80;54.30;;;;;;5114476;28;20738;-70
2021/06/18 10:18:49;;;;;;;10.93;10.13;;;35.00;53.20;;;;;;5125920;27;20632;-70
2021/06/18 10:21:17;;;;;;;10.30;9.50;;;34.40;53.60;;;;;;5128258;27;20673;-70
2021/06/18 10:23:45;;;;;;;10.90;9.90;;;34.40;53.60;;;;;;5121980;27;20627;-70
2021/06/18 10:26:14;;;;;;;9.40;8.70;;;33.60;54.50;;;;;;5127296;27;20636;-71
2021/06/18 10:28:53;;;;;;;10.80;9.80;;;33.80;53.40;;;;;;5138618;27;20627;-71
2021/06/18 10:31:26;;;;;;;10.80;9.80;;;33.50;53.60;;;;;;5122421;27;20676;-71
2021/06/18 10:34:05;;;;;;;9.90;9.20;;;34.10;52.70;;;;;;5127966;27;20623;-71
2021/06/18 10:36:32;;;;;;;10.30;9.50;;;34.20;53.80;;;;;;5126317;27;20718;-71
2021/06/18 10:39:11;;;;;;;10.00;9.10;;;34.40;52.50;;;;;;5127097;27;20682;-71
2021/06/18 10:41:46;;;;;;;9.90;9.20;;;34.50;52.40;;;;;;5125818;27;20680;-70
2021/06/18 10:44:45;;;;;;;9.40;8.67;;;34.40;51.20;;;;;;5125995;27;20659;-71
2021/06/18 10:47:43;;;;;;;9.87;9.17;;;34.10;51.40;;;;;;5122845;27;20629;-71
2021/06/18 10:50:12;;;;;;;9.47;8.73;;;33.70;52.70;;;;;;5126365;27;21398;-71
2021/06/18 10:52:40;;;;;;;8.33;7.67;;;33.90;50.10;;;;;;5128019;27;21306;-71
2021/06/18 10:55:08;;;;;;;9.07;8.37;;;33.80;51.20;;;;;;5126043;27;20735;-71
2021/06/18 10:57:36;;;;;;;7.90;7.37;;;34.00;50.20;;;;;;5127627;27;20638;-71
2021/06/18 11:00:27;;;;;;;10.40;8.73;;;33.70;50.00;;;;;;5122711;27;20633;-70
2021/06/18 11:02:55;;;;;;;7.77;7.27;;;34.00;50.20;;;;;;5127234;27;20624;-71
2021/06/18 11:05:38;;;;;;;7.67;6.93;;;33.80;48.40;;;;;;5125070;27;20638;-70
2021/06/18 11:08:29;;;;;;;7.47;6.97;;;33.30;48.10;;;;;;5115226;27;20725;-70
2021/06/18 11:10:58;;;;;;;5.90;5.50;;;32.80;45.60;;;;;;5127412;27;20662;-70
2021/06/18 11:13:26;;;;;;;7.93;7.43;;;32.50;45.60;;;;;;5125796;27;20636;-71
2021/06/18 11:15:55;;;;;;;8.50;7.90;;;32.40;50.20;;;;;;5126244;27;20729;-71
2021/06/18 11:18:41;;;;;;;8.10;7.50;;;32.50;52.80;;;;;;5127360;27;21285;-71
2021/06/18 11:21:10;;;;;;;7.67;7.17;;;32.60;54.80;;;;;;5117781;27;20644;-71
2021/06/18 11:23:39;;;;;;;7.47;6.97;;;32.60;49.30;;;;;;5124571;27;20646;-71
2021/06/18 11:26:13;;;;;;;6.60;6.10;;;32.60;50.10;;;;;;5127776;27;20651;-71
2021/06/18 11:28:51;;;;;;;6.33;5.93;;;32.70;48.40;;;;;;5129413;27;21193;-70
2021/06/18 11:31:38;;;;;;;8.10;6.50;;;33.00;46.60;;;;;;5127153;27;20679;-70
2021/06/18 11:34:05;;;;;;;8.87;8.33;;;32.80;48.50;;;;;;5123926;27;21276;-71
2021/06/18 11:36:42;;;;;;;7.97;7.47;;;32.50;50.70;;;;;;5122886;27;21409;-71
2021/06/18 11:39:23;;;;;;;7.77;7.17;;;32.70;50.50;;;;;;5121390;27;20703;-71
2021/06/18 11:42:02;;;;;;;6.87;6.37;;;32.80;51.70;;;;;;5123922;27;20987;-70
2021/06/18 11:44:29;;;;;;;6.73;6.10;;;33.10;49.40;;;;;;5124085;27;20739;-71
2021/06/18 11:46:58;;;;;;;6.30;5.80;;;33.00;48.20;;;;;;5124863;27;20723;-70
2021/06/18 11:49:29;;;;;;;6.80;6.30;;;33.10;47.30;;;;;;5123304;27;20628;-70
2021/06/18 11:52:01;;;;;;;6.40;6.03;;;33.00;47.30;;;;;;5124652;27;20685;-70
2021/06/18 11:54:30;;;;;;;6.97;6.47;;;33.00;45.30;;;;;;5121534;27;20729;-70
2021/06/18 11:57:23;;;;;;;6.10;5.80;;;33.10;47.40;;;;;;5123257;27;20730;-69
2021/06/18 12:00:02;;;;;;;7.13;6.50;;;32.80;45.10;;;;;;5123656;27;20635;-70
2021/06/18 12:02:32;;;;;;;6.57;5.97;;;32.60;47.30;;;;;;5126395;27;20705;-69
2021/06/18 12:05:01;;;;;;;6.07;5.67;;;32.50;46.50;;;;;;5113316;27;20993;-70
2021/06/18 12:07:30;;;;;;;7.20;6.50;;;32.50;44.40;;;;;;5128161;27;20638;-70
2021/06/18 12:09:57;;;;;;;6.50;6.00;;;32.50;45.70;;;;;;5123690;27;20626;-70
2021/06/18 12:12:25;;;;;;;5.90;5.60;;;32.70;47.80;;;;;;5118374;27;21061;-70
2021/06/18 12:14:56;;;;;;;5.97;5.47;;;32.70;44.20;;;;;;5116852;27;20669;-69
2021/06/18 12:17:23;;;;;;;4.60;4.30;;;32.90;43.90;;;;;;5125480;27;20688;-70
2021/06/18 12:19:53;;;;;;;5.53;5.10;;;32.90;45.80;;;;;;5114211;27;21040;-70
2021/06/18 12:22:21;;;;;;;4.70;4.40;;;32.80;42.00;;;;;;5119721;27;20646;-68
2021/06/18 12:24:50;;;;;;;5.40;5.00;;;32.80;43.10;;;;;;5119838;27;21078;-69
2021/06/18 12:27:19;;;;;;;6.00;5.50;;;32.90;44.80;;;;;;5120298;27;20639;-70
2021/06/18 12:29:52;;;;;;;5.03;4.73;;;32.80;43.90;;;;;;5125694;27;21077;-69
2021/06/18 12:32:20;;;;;;;6.13;5.60;;;32.90;43.00;;;;;;5126458;27;21686;-70
2021/06/18 12:34:48;;;;;;;5.63;5.23;;;32.90;42.50;;;;;;5126009;27;20735;-70
2021/06/18 12:37:19;;;;;;;5.20;4.70;;;32.70;42.20;;;;;;5125878;27;20649;-69
2021/06/18 12:39:54;;;;;;;5.50;5.10;;;32.80;41.00;;;;;;5117673;27;20724;-70
2021/06/18 12:42:27;;;;;;;6.87;5.70;;;32.70;43.40;;;;;;5122856;27;20636;-71
2021/06/18 12:45:10;;;;;;;5.53;5.10;;;32.60;43.60;;;;;;5121488;27;21194;-70
2021/06/18 12:47:38;;;;;;;6.10;5.70;;;32.70;43.50;;;;;;5120064;27;21081;-70